LSME

Emmen Airport

Airport
ICAO code
LSME
IATA Code
EML
Summary
ICAO Region
EUR
ICAO Territory
Location

Emmen Dorf, Luzern

Serving
Emmen
Elevation
1400 ft
Coordinates
47° 5' 33" N , 8° 18' 18" E
Metar
Observation
LSME 111750Z AUTO 00000KT 9999NDV NCD 27/12 Q1017 RMK
Station
EMMEN
Date/Time
2022-08-11 17:50:00
Wind direction
Wind speed
00 kts
Lowest cloud amount
n/a
Temperature
27°C
Dew point
12°C
Humidity
39%
QNH
1017 hPa
Weather condition
n/a

Militärflugplatz Emmen (Emmen Military Air Base) (IATA: EML, ICAO: LSME) is a military airfield north of Emmen, Switzerland, located northwest of Lucerne.

Climatology

Humid continental climate (Köppen climate classification Dfb)

Runways

Designator Length Width Surface Rops
4/22 2502 40 ASP No/No

Airport map

Aerial View

SKYbrary Partners:

Safety knowledge contributed by: